createdAt,value
2018-07-16T00:00:42.688Z,20.14
2018-07-16T00:01:42.656Z,20.15
2018-07-16T00:02:42.657Z,20.16
2018-07-16T00:03:42.811Z,20.16
2018-07-16T00:04:42.706Z,20.16
2018-07-16T00:05:42.668Z,20.17
2018-07-16T00:06:42.640Z,20.17
2018-07-16T00:07:42.831Z,20.16
2018-07-16T00:08:42.698Z,20.16
2018-07-16T00:09:42.807Z,20.16
2018-07-16T00:10:42.676Z,20.13
2018-07-16T00:11:42.652Z,20.16
2018-07-16T00:12:42.698Z,20.11
2018-07-16T00:13:42.699Z,20.06
2018-07-16T00:14:44.200Z,20.05
2018-07-16T00:15:42.640Z,20.07
2018-07-16T00:16:42.783Z,20.06
2018-07-16T00:17:42.682Z,20.01
2018-07-16T00:18:42.655Z,20.02
2018-07-16T00:19:42.778Z,20.01
2018-07-16T00:20:42.712Z,20
2018-07-16T00:21:42.865Z,20.02
2018-07-16T00:22:42.721Z,20.02
2018-07-16T00:23:42.648Z,19.99
2018-07-16T00:24:42.727Z,20
2018-07-16T00:25:42.739Z,20.01
2018-07-16T00:26:42.678Z,20.01
2018-07-16T00:27:42.658Z,19.92
2018-07-16T00:28:42.617Z,19.89
2018-07-16T00:29:42.663Z,19.91
2018-07-16T00:30:42.626Z,19.92
2018-07-16T00:31:42.830Z,19.92
2018-07-16T00:32:42.631Z,19.93
2018-07-16T00:33:42.855Z,19.94
2018-07-16T00:34:42.719Z,19.96
2018-07-16T00:35:42.607Z,19.97
2018-07-16T00:36:42.955Z,19.95
2018-07-16T00:37:42.679Z,19.96
2018-07-16T00:38:42.729Z,19.97
2018-07-16T00:39:42.638Z,19.98
2018-07-16T00:40:42.683Z,19.99
2018-07-16T00:41:42.749Z,19.99
2018-07-16T00:42:42.727Z,20.01
2018-07-16T00:43:42.639Z,20.01
2018-07-16T00:44:42.639Z,20.04
2018-07-16T00:45:42.676Z,20.04
2018-07-16T00:46:42.629Z,20.04
2018-07-16T00:47:42.643Z,20.05
2018-07-16T00:48:42.632Z,20.04
2018-07-16T00:49:42.701Z,20.03
2018-07-16T00:50:42.613Z,20.03
2018-07-16T00:51:42.660Z,19.98
2018-07-16T00:52:42.631Z,19.94
2018-07-16T00:53:42.621Z,19.94
2018-07-16T00:54:42.624Z,19.88
2018-07-16T00:55:43.093Z,19.81
2018-07-16T00:56:42.604Z,19.77
2018-07-16T00:57:42.712Z,19.8
2018-07-16T00:58:42.640Z,19.81
2018-07-16T00:59:42.645Z,19.82
2018-07-16T01:00:42.628Z,19.85
2018-07-16T01:01:42.619Z,19.86
2018-07-16T01:02:42.610Z,19.86
2018-07-16T01:03:42.697Z,19.86
2018-07-16T01:04:42.701Z,19.87
2018-07-16T01:05:42.635Z,19.86
2018-07-16T01:06:42.625Z,19.87
2018-07-16T01:07:42.638Z,19.87
2018-07-16T01:08:42.612Z,19.85
2018-07-16T01:09:42.905Z,19.86
2018-07-16T01:10:42.684Z,19.87
2018-07-16T01:11:42.682Z,19.87
2018-07-16T01:12:42.623Z,19.87
2018-07-16T01:13:42.609Z,19.86
2018-07-16T01:14:42.820Z,19.87
2018-07-16T01:15:42.655Z,19.88
2018-07-16T01:16:42.639Z,19.9
2018-07-16T01:17:42.606Z,19.89
2018-07-16T01:18:42.778Z,19.87
2018-07-16T01:19:42.651Z,19.9
2018-07-16T01:20:42.626Z,19.88
2018-07-16T01:21:42.625Z,19.88
2018-07-16T01:22:42.654Z,19.9
2018-07-16T01:23:42.613Z,19.86
2018-07-16T01:24:42.590Z,19.85
2018-07-16T01:25:42.612Z,19.83
2018-07-16T01:26:42.647Z,19.79
2018-07-16T01:27:42.698Z,19.73
2018-07-16T01:28:42.638Z,19.72
2018-07-16T01:29:42.647Z,19.67
2018-07-16T01:30:42.666Z,19.65
2018-07-16T01:31:42.669Z,19.63
2018-07-16T01:32:43.068Z,19.62
2018-07-16T01:33:42.619Z,19.6
2018-07-16T01:34:42.632Z,19.61
2018-07-16T01:35:42.622Z,19.59
2018-07-16T01:36:42.681Z,19.58
2018-07-16T01:37:42.666Z,19.54
2018-07-16T01:38:42.652Z,19.58
2018-07-16T01:39:42.632Z,19.57
2018-07-16T01:40:42.721Z,19.62
2018-07-16T01:41:42.626Z,19.62
2018-07-16T01:42:42.669Z,19.62
2018-07-16T01:43:42.610Z,19.65
2018-07-16T01:44:42.790Z,19.64
2018-07-16T01:45:42.637Z,19.66
2018-07-16T01:46:42.687Z,19.66
2018-07-16T01:47:42.787Z,19.67
2018-07-16T01:48:42.672Z,19.68
2018-07-16T01:49:42.596Z,19.68
2018-07-16T01:50:42.770Z,19.71
2018-07-16T01:51:42.591Z,19.72
2018-07-16T01:52:42.633Z,19.74
2018-07-16T01:53:42.703Z,19.73
2018-07-16T01:54:42.614Z,19.74
2018-07-16T01:55:42.603Z,19.73
2018-07-16T01:56:42.636Z,19.73
2018-07-16T01:57:42.598Z,19.76
2018-07-16T01:58:42.592Z,19.75
2018-07-16T01:59:42.635Z,19.75
2018-07-16T02:00:42.622Z,19.75
2018-07-16T02:01:42.581Z,19.77
2018-07-16T02:02:42.592Z,19.75
2018-07-16T02:03:42.961Z,19.78
2018-07-16T02:04:42.632Z,19.77
2018-07-16T02:05:42.585Z,19.77
2018-07-16T02:06:42.630Z,19.77
2018-07-16T02:07:42.614Z,19.78
2018-07-16T02:08:42.616Z,19.76
2018-07-16T02:09:42.604Z,19.79
2018-07-16T02:10:42.597Z,19.79
2018-07-16T02:11:42.620Z,19.79
2018-07-16T02:12:42.574Z,19.79
2018-07-16T02:13:42.609Z,19.78
2018-07-16T02:14:42.589Z,19.79
2018-07-16T02:15:42.578Z,19.78
2018-07-16T02:16:42.604Z,19.79
2018-07-16T02:17:42.630Z,19.78
2018-07-16T02:18:42.602Z,19.76
2018-07-16T02:19:42.757Z,19.79
2018-07-16T02:20:42.657Z,19.79
2018-07-16T02:21:42.803Z,19.79
2018-07-16T02:22:42.617Z,19.79
2018-07-16T02:23:44.753Z,19.79
2018-07-16T02:24:42.635Z,19.78
2018-07-16T02:25:42.675Z,19.75
2018-07-16T02:26:42.619Z,19.75
2018-07-16T02:27:42.631Z,19.78
2018-07-16T02:28:42.624Z,19.78
2018-07-16T02:29:42.639Z,19.76
2018-07-16T02:30:42.706Z,19.78
2018-07-16T02:31:42.643Z,19.75
2018-07-16T02:32:42.674Z,19.76
2018-07-16T02:33:42.610Z,19.78
2018-07-16T02:34:42.624Z,19.76
2018-07-16T02:35:42.621Z,19.78
2018-07-16T02:36:42.605Z,19.76
2018-07-16T02:37:42.644Z,19.76
2018-07-16T02:38:42.650Z,19.75
2018-07-16T02:39:42.615Z,19.74
2018-07-16T02:40:42.719Z,19.74
2018-07-16T02:41:42.668Z,19.75
2018-07-16T02:42:42.636Z,19.75
2018-07-16T02:43:42.677Z,19.75
2018-07-16T02:44:42.874Z,19.75
2018-07-16T02:45:42.649Z,19.76
2018-07-16T02:46:42.593Z,19.75
2018-07-16T02:47:42.597Z,19.76
2018-07-16T02:48:42.634Z,19.73
2018-07-16T02:49:42.737Z,19.73
2018-07-16T02:50:42.585Z,19.73
2018-07-16T02:51:42.616Z,19.73
2018-07-16T02:52:42.704Z,19.73
2018-07-16T02:53:42.580Z,19.72
2018-07-16T02:54:42.604Z,19.72
2018-07-16T02:55:42.692Z,19.73
2018-07-16T02:56:42.652Z,19.72
2018-07-16T02:57:42.666Z,19.69
2018-07-16T02:58:42.638Z,19.67
2018-07-16T02:59:42.637Z,19.7
2018-07-16T03:00:42.598Z,19.68
2018-07-16T03:01:42.721Z,19.67
2018-07-16T03:02:42.654Z,19.69
2018-07-16T03:03:42.672Z,19.66
2018-07-16T03:04:42.625Z,19.66
2018-07-16T03:05:42.574Z,19.66
2018-07-16T03:06:42.725Z,19.65
2018-07-16T03:07:42.600Z,19.65
2018-07-16T03:08:42.727Z,19.63
2018-07-16T03:09:42.611Z,19.63
2018-07-16T03:10:42.575Z,19.63
2018-07-16T03:11:42.585Z,19.63
2018-07-16T03:12:42.639Z,19.62
2018-07-16T03:13:42.626Z,19.63
2018-07-16T03:14:42.581Z,19.63
2018-07-16T03:15:42.662Z,19.63
2018-07-16T03:16:42.643Z,19.62
2018-07-16T03:17:42.626Z,19.61
2018-07-16T03:18:42.576Z,19.6
2018-07-16T03:19:42.583Z,19.56
2018-07-16T03:20:42.603Z,19.55
2018-07-16T03:21:42.596Z,19.55
2018-07-16T03:22:42.666Z,19.52
2018-07-16T03:23:42.586Z,19.55
2018-07-16T03:24:42.571Z,19.52
2018-07-16T03:25:42.551Z,19.53
2018-07-16T03:26:42.582Z,19.5
2018-07-16T03:27:42.604Z,19.49
2018-07-16T03:28:42.741Z,19.49
2018-07-16T03:29:42.580Z,19.48
2018-07-16T03:30:42.632Z,19.46
2018-07-16T03:31:42.646Z,19.45
2018-07-16T03:32:42.590Z,19.44
2018-07-16T03:33:42.607Z,19.43
2018-07-16T03:34:42.645Z,19.44
2018-07-16T03:35:42.543Z,19.42
2018-07-16T03:36:42.560Z,19.43
2018-07-16T03:37:42.577Z,19.44
2018-07-16T03:38:42.790Z,19.44
2018-07-16T03:39:42.672Z,19.42
2018-07-16T03:40:42.587Z,19.42
2018-07-16T03:41:42.636Z,19.42
2018-07-16T03:42:42.881Z,19.41
2018-07-16T03:43:42.779Z,19.43
2018-07-16T03:44:42.701Z,19.43
2018-07-16T03:45:42.576Z,19.43
2018-07-16T03:46:42.617Z,19.42
2018-07-16T03:47:42.577Z,19.43
2018-07-16T03:48:42.714Z,19.44
2018-07-16T03:49:42.616Z,19.43
2018-07-16T03:50:42.656Z,19.44
2018-07-16T03:51:42.565Z,19.44
2018-07-16T03:52:42.557Z,19.45
2018-07-16T03:53:42.645Z,19.41
2018-07-16T03:54:42.651Z,19.42
2018-07-16T03:55:43.091Z,19.41
2018-07-16T03:56:42.556Z,19.4
2018-07-16T03:57:42.726Z,19.44
2018-07-16T03:58:42.583Z,19.41
2018-07-16T03:59:42.584Z,19.4
2018-07-16T04:00:42.597Z,19.41
2018-07-16T04:01:44.031Z,19.39
2018-07-16T04:02:42.619Z,19.4
2018-07-16T04:03:42.566Z,19.39
2018-07-16T04:04:42.580Z,19.37
2018-07-16T04:05:42.558Z,19.19
2018-07-16T04:06:42.654Z,19.07
2018-07-16T04:07:42.634Z,18.98
2018-07-16T04:08:42.566Z,18.86
2018-07-16T04:09:42.566Z,18.85
2018-07-16T04:10:42.593Z,18.81
2018-07-16T04:11:42.639Z,18.74
2018-07-16T04:12:42.669Z,18.66
2018-07-16T04:13:42.575Z,18.7
2018-07-16T04:14:42.601Z,18.67
2018-07-16T04:15:42.732Z,18.59
2018-07-16T04:16:42.602Z,18.52
2018-07-16T04:17:42.608Z,18.51
2018-07-16T04:18:42.616Z,18.52
2018-07-16T04:19:42.624Z,18.56
2018-07-16T04:20:42.557Z,18.59
2018-07-16T04:21:42.569Z,18.59
2018-07-16T04:22:42.604Z,18.59
2018-07-16T04:23:42.564Z,18.61
2018-07-16T04:24:42.576Z,18.63
2018-07-16T04:25:42.562Z,18.64
2018-07-16T04:26:42.567Z,18.66
2018-07-16T04:27:42.555Z,18.68
2018-07-16T04:28:42.558Z,18.7
2018-07-16T04:29:42.536Z,18.73
2018-07-16T04:30:42.579Z,18.72
2018-07-16T04:31:42.547Z,18.73
2018-07-16T04:32:42.572Z,18.74
2018-07-16T04:33:42.564Z,18.78
2018-07-16T04:34:42.527Z,18.78
2018-07-16T04:35:42.635Z,18.79
2018-07-16T04:36:42.617Z,18.79
2018-07-16T04:37:42.556Z,18.78
2018-07-16T04:38:42.624Z,18.81
2018-07-16T04:39:42.881Z,18.82
2018-07-16T04:40:42.567Z,18.83
2018-07-16T04:41:42.573Z,18.85
2018-07-16T04:42:42.889Z,18.85
2018-07-16T04:43:42.578Z,18.89
2018-07-16T04:44:42.619Z,18.87
2018-07-16T04:45:42.594Z,18.87
2018-07-16T04:46:42.608Z,18.92
2018-07-16T04:47:42.677Z,18.95
2018-07-16T04:48:42.561Z,18.94
2018-07-16T04:49:42.728Z,18.96
2018-07-16T04:50:42.630Z,18.96
2018-07-16T04:51:42.552Z,18.97
2018-07-16T04:52:42.582Z,18.97
2018-07-16T04:53:42.568Z,18.92
2018-07-16T04:54:42.580Z,18.94
2018-07-16T04:55:42.759Z,18.93
2018-07-16T04:56:42.661Z,18.94
2018-07-16T04:57:42.582Z,18.95
2018-07-16T04:58:42.601Z,18.96
2018-07-16T04:59:42.598Z,18.97
2018-07-16T05:00:42.539Z,18.99
2018-07-16T05:01:42.537Z,18.99
2018-07-16T05:02:42.585Z,19.02
2018-07-16T05:03:42.560Z,19.04
2018-07-16T05:04:42.585Z,19.05
2018-07-16T05:05:42.736Z,19.05
2018-07-16T05:06:42.631Z,19.05
2018-07-16T05:07:42.714Z,19.05
2018-07-16T05:08:42.660Z,19.05
2018-07-16T05:09:42.647Z,19.07
2018-07-16T05:10:42.599Z,19.08
2018-07-16T05:11:42.659Z,19.09
2018-07-16T05:12:42.601Z,19.1
2018-07-16T05:13:42.630Z,19.11
2018-07-16T05:14:42.668Z,19.11
2018-07-16T05:15:42.573Z,19.15
2018-07-16T05:16:42.607Z,19.16
2018-07-16T05:17:42.708Z,19.17
2018-07-16T05:18:42.745Z,19.2
2018-07-16T05:19:42.565Z,19.17
2018-07-16T05:20:42.583Z,19.22
2018-07-16T05:21:42.620Z,19.22
2018-07-16T05:22:42.577Z,19.23
2018-07-16T05:23:42.608Z,19.23
2018-07-16T05:24:42.699Z,19.24
2018-07-16T05:25:42.647Z,19.23
2018-07-16T05:26:42.584Z,19.25
2018-07-16T05:27:42.596Z,19.25
2018-07-16T05:28:42.917Z,19.25
2018-07-16T05:29:42.672Z,19.28
2018-07-16T05:30:42.623Z,19.28
2018-07-16T05:31:43.174Z,19.29
2018-07-16T05:32:45.356Z,19.29
2018-07-16T05:33:42.758Z,19.29
2018-07-16T05:34:42.646Z,19.3
2018-07-16T05:35:42.592Z,19.3
2018-07-16T05:36:42.594Z,19.33
2018-07-16T05:37:42.640Z,19.33
2018-07-16T05:38:42.600Z,19.35
2018-07-16T05:39:42.603Z,19.34
2018-07-16T05:40:42.625Z,19.33
2018-07-16T05:41:42.740Z,19.36
2018-07-16T05:42:42.609Z,19.35
2018-07-16T05:43:42.595Z,19.35
2018-07-16T05:44:42.609Z,19.35
2018-07-16T05:45:42.618Z,19.36
2018-07-16T05:46:42.606Z,19.36
2018-07-16T05:47:42.607Z,19.37
2018-07-16T05:48:42.599Z,19.38
2018-07-16T05:49:42.570Z,19.41
2018-07-16T05:50:42.572Z,19.38
2018-07-16T05:51:42.596Z,19.41
2018-07-16T05:52:42.597Z,19.42
2018-07-16T05:53:42.576Z,19.42
2018-07-16T05:54:42.579Z,19.42
2018-07-16T05:55:42.585Z,19.4
2018-07-16T05:56:42.587Z,19.4
2018-07-16T05:57:42.599Z,19.4
2018-07-16T05:58:42.600Z,19.4
2018-07-16T05:59:42.610Z,19.41
2018-07-16T06:00:42.614Z,19.43
2018-07-16T06:01:42.658Z,19.45
2018-07-16T06:02:42.832Z,19.48
2018-07-16T06:03:42.633Z,19.5
2018-07-16T06:04:42.650Z,19.51
2018-07-16T06:05:42.605Z,19.55
2018-07-16T06:06:42.659Z,19.56
2018-07-16T06:07:42.618Z,19.6
2018-07-16T06:08:42.884Z,19.62
2018-07-16T06:09:42.612Z,19.64
2018-07-16T06:10:42.932Z,19.65
2018-07-16T06:11:42.596Z,19.66
2018-07-16T06:12:42.693Z,19.67
2018-07-16T06:13:42.807Z,19.69
2018-07-16T06:14:42.793Z,19.69
2018-07-16T06:15:42.643Z,19.73
2018-07-16T06:16:43.081Z,19.73
2018-07-16T06:17:42.735Z,19.76
2018-07-16T06:18:42.598Z,19.75
2018-07-16T06:19:42.665Z,19.74
2018-07-16T06:20:42.777Z,19.78
2018-07-16T06:21:42.624Z,19.79
2018-07-16T06:22:42.808Z,19.79
2018-07-16T06:23:42.595Z,19.79
2018-07-16T06:24:42.669Z,19.81
2018-07-16T06:25:42.618Z,19.84
2018-07-16T06:26:42.630Z,19.77
2018-07-16T06:27:42.702Z,19.75
2018-07-16T06:28:42.614Z,19.73
2018-07-16T06:29:42.651Z,19.74
2018-07-16T06:30:42.649Z,19.74
2018-07-16T06:31:42.630Z,19.78
2018-07-16T06:32:42.676Z,19.78
2018-07-16T06:33:43.671Z,19.81
2018-07-16T06:34:42.605Z,19.82
2018-07-16T06:35:42.650Z,19.85
2018-07-16T06:36:42.769Z,19.83
2018-07-16T06:37:42.643Z,19.77
2018-07-16T06:38:42.611Z,19.79
2018-07-16T06:39:44.127Z,19.82
2018-07-16T06:40:45.422Z,19.82
2018-07-16T06:41:42.670Z,19.85
2018-07-16T06:42:42.629Z,19.87
2018-07-16T06:43:42.669Z,19.91
2018-07-16T06:44:42.621Z,19.94
2018-07-16T06:45:42.700Z,19.97
2018-07-16T06:46:42.646Z,20.01
2018-07-16T06:47:43.058Z,20.03
2018-07-16T06:48:42.704Z,20.05
2018-07-16T06:49:42.689Z,20.1
2018-07-16T06:50:42.965Z,20.12
2018-07-16T06:51:42.622Z,20.13
2018-07-16T06:52:42.630Z,20.16
2018-07-16T06:53:42.646Z,20.22
2018-07-16T06:54:42.709Z,20.21
2018-07-16T06:55:42.622Z,20.22
2018-07-16T06:56:42.688Z,20.21
2018-07-16T06:57:42.696Z,20.26
2018-07-16T06:58:42.681Z,20.29
2018-07-16T06:59:42.645Z,20.29
2018-07-16T07:00:42.845Z,20.32
2018-07-16T07:01:42.659Z,20.32
2018-07-16T07:02:42.641Z,20.34
2018-07-16T07:03:42.651Z,20.38
2018-07-16T07:04:42.763Z,20.38
2018-07-16T07:05:42.697Z,20.4
2018-07-16T07:06:42.667Z,20.41
2018-07-16T07:07:42.676Z,20.45
2018-07-16T07:08:42.743Z,20.45
2018-07-16T07:09:42.618Z,20.48
2018-07-16T07:10:42.669Z,20.53
2018-07-16T07:11:42.798Z,20.55
2018-07-16T07:12:42.658Z,20.57
2018-07-16T07:13:42.840Z,20.56
2018-07-16T07:14:42.664Z,20.57
2018-07-16T07:15:42.735Z,20.59
2018-07-16T07:16:42.634Z,20.63
2018-07-16T07:17:42.670Z,20.63
2018-07-16T07:18:42.668Z,20.66
2018-07-16T07:19:42.696Z,20.67
2018-07-16T07:20:42.673Z,20.69
2018-07-16T07:21:42.654Z,20.72
2018-07-16T07:22:42.682Z,20.74
2018-07-16T07:23:42.681Z,20.78
2018-07-16T07:24:42.725Z,20.68
2018-07-16T07:25:42.710Z,20.66
2018-07-16T07:26:42.706Z,20.6
2018-07-16T07:27:42.743Z,20.64
2018-07-16T07:28:42.748Z,20.69
2018-07-16T07:29:42.785Z,20.72
2018-07-16T07:30:42.713Z,20.75
2018-07-16T07:31:42.710Z,20.77
2018-07-16T07:32:42.799Z,20.82
2018-07-16T07:33:42.734Z,20.85
2018-07-16T07:34:42.768Z,20.9
2018-07-16T07:35:44.454Z,20.96
2018-07-16T07:36:42.892Z,20.99
2018-07-16T07:37:43.366Z,21.04
2018-07-16T07:38:42.702Z,21.06
2018-07-16T07:39:42.841Z,21.09
2018-07-16T07:40:42.674Z,21.09
2018-07-16T07:41:42.685Z,21.14
2018-07-16T07:42:42.729Z,21.15
2018-07-16T07:43:42.683Z,21.17
2018-07-16T07:44:42.675Z,21.21
2018-07-16T07:45:42.782Z,21.24
2018-07-16T07:46:42.730Z,21.3
2018-07-16T07:47:44.104Z,21.36
2018-07-16T07:48:42.870Z,21.4
2018-07-16T07:49:42.705Z,21.46
2018-07-16T07:50:42.692Z,21.52
2018-07-16T07:51:42.696Z,21.55
2018-07-16T07:52:42.772Z,21.56
2018-07-16T07:53:42.714Z,21.57
2018-07-16T07:54:45.317Z,21.6
2018-07-16T07:55:43.555Z,21.6
2018-07-16T07:56:42.722Z,21.62
2018-07-16T07:57:42.706Z,21.65
2018-07-16T07:58:42.767Z,21.69
2018-07-16T07:59:42.778Z,21.69
2018-07-16T08:00:42.766Z,21.72
2018-07-16T08:01:42.690Z,21.75
2018-07-16T08:02:42.762Z,21.76
2018-07-16T08:03:42.774Z,21.81
2018-07-16T08:04:42.714Z,21.82
2018-07-16T08:05:42.711Z,21.83
2018-07-16T08:06:42.827Z,21.84
2018-07-16T08:07:42.743Z,21.85
2018-07-16T08:08:42.721Z,21.86
2018-07-16T08:09:42.826Z,21.91
2018-07-16T08:10:42.867Z,21.92
2018-07-16T08:11:43.028Z,21.96
2018-07-16T08:12:42.816Z,21.99
2018-07-16T08:13:43.609Z,21.98
2018-07-16T08:14:44.102Z,22.02
2018-07-16T08:15:42.770Z,22.06
2018-07-16T08:16:42.769Z,22.08
2018-07-16T08:17:42.838Z,22.06
2018-07-16T08:18:44.466Z,22.07
2018-07-16T08:19:45.148Z,22.11
2018-07-16T08:20:42.833Z,22.13
2018-07-16T08:21:42.777Z,22.1
2018-07-16T08:22:42.833Z,22.15
2018-07-16T08:23:42.819Z,22.15
2018-07-16T08:24:42.842Z,22.14
2018-07-16T08:25:42.770Z,22.19
2018-07-16T08:26:42.788Z,22.16
2018-07-16T08:27:46.479Z,22.2
2018-07-16T08:28:42.755Z,22.16
2018-07-16T08:29:42.784Z,22.07
2018-07-16T08:30:43.201Z,22.1
2018-07-16T08:31:42.849Z,22.14
2018-07-16T08:32:42.845Z,22.17
2018-07-16T08:33:44.044Z,22.28
2018-07-16T08:34:42.917Z,22.29
2018-07-16T08:35:47.577Z,22.32
2018-07-16T08:36:42.809Z,22.33
2018-07-16T08:37:42.940Z,22.34
2018-07-16T08:38:42.874Z,22.33
2018-07-16T08:39:42.920Z,22.34
2018-07-16T08:40:42.909Z,22.41
2018-07-16T08:41:42.897Z,22.47
2018-07-16T08:42:42.963Z,22.47
2018-07-16T08:43:47.240Z,22.51
2018-07-16T08:44:43.015Z,22.52
2018-07-16T08:45:42.907Z,22.56
2018-07-16T08:46:42.758Z,22.58
2018-07-16T08:47:42.832Z,22.57
2018-07-16T08:48:42.817Z,22.54
2018-07-16T08:49:42.736Z,22.59
2018-07-16T08:50:42.964Z,22.59
2018-07-16T08:51:42.745Z,22.56
2018-07-16T08:52:43.334Z,22.59
2018-07-16T08:53:42.761Z,22.66
2018-07-16T08:54:42.769Z,22.66
2018-07-16T08:55:43.156Z,22.66
2018-07-16T08:56:42.859Z,22.56
2018-07-16T08:57:42.774Z,22.5
2018-07-16T08:58:42.813Z,22.53
2018-07-16T08:59:42.802Z,22.58
2018-07-16T09:00:42.725Z,22.59
2018-07-16T09:01:42.756Z,22.59
2018-07-16T09:02:42.751Z,22.61
2018-07-16T09:03:42.869Z,22.66
2018-07-16T09:04:42.961Z,22.7
2018-07-16T09:05:43.202Z,22.73
2018-07-16T09:06:42.736Z,22.74
2018-07-16T09:07:42.727Z,22.73
2018-07-16T09:08:42.775Z,22.71
2018-07-16T09:09:42.726Z,22.71
2018-07-16T09:10:42.886Z,22.81
2018-07-16T09:11:42.765Z,22.87
2018-07-16T09:12:42.747Z,22.92
2018-07-16T09:13:42.797Z,22.97
2018-07-16T09:14:42.829Z,23.02
2018-07-16T09:15:42.896Z,22.97
2018-07-16T09:16:43.047Z,23.01
2018-07-16T09:17:42.920Z,23.01
2018-07-16T09:18:42.758Z,23.03
2018-07-16T09:19:42.745Z,23.04
2018-07-16T09:20:42.722Z,23.08
2018-07-16T09:21:42.876Z,23.15
2018-07-16T09:22:42.737Z,23.18
2018-07-16T09:23:42.755Z,23.2
2018-07-16T09:24:42.746Z,23.26
2018-07-16T09:25:42.760Z,23.28
2018-07-16T09:26:42.750Z,23.33
2018-07-16T09:27:42.732Z,23.38
2018-07-16T09:28:42.891Z,23.41
2018-07-16T09:29:42.759Z,23.42
2018-07-16T09:30:42.739Z,23.47
2018-07-16T09:31:42.720Z,23.46
2018-07-16T09:32:43.303Z,23.51
2018-07-16T09:33:42.749Z,23.55
2018-07-16T09:34:42.729Z,23.65
2018-07-16T09:35:42.738Z,23.65
2018-07-16T09:36:42.718Z,23.66
2018-07-16T09:37:42.753Z,23.71
2018-07-16T09:38:42.794Z,23.72
2018-07-16T09:39:43.012Z,23.76
2018-07-16T09:40:42.753Z,23.77
2018-07-16T09:41:42.742Z,23.78
2018-07-16T09:42:42.785Z,23.82
2018-07-16T09:43:42.832Z,23.89
2018-07-16T09:44:42.765Z,23.92
2018-07-16T09:45:42.763Z,23.98
2018-07-16T09:46:42.780Z,24.03
2018-07-16T09:47:42.773Z,24.09
2018-07-16T09:48:42.797Z,24.19
2018-07-16T09:49:42.978Z,24.26
2018-07-16T09:50:42.844Z,24.32
2018-07-16T09:51:42.794Z,24.37
2018-07-16T09:52:42.736Z,24.41
2018-07-16T09:53:42.790Z,24.44
2018-07-16T09:54:42.856Z,24.44
2018-07-16T09:55:42.852Z,24.48
2018-07-16T09:56:42.822Z,24.52
2018-07-16T09:57:42.830Z,24.55
2018-07-16T09:58:42.969Z,24.54
2018-07-16T09:59:42.816Z,24.59
2018-07-16T10:00:42.849Z,24.57
2018-07-16T10:01:42.861Z,24.57
2018-07-16T10:02:42.781Z,24.6
2018-07-16T10:03:42.849Z,24.66
2018-07-16T10:04:42.783Z,24.72
2018-07-16T10:05:43.007Z,24.76
2018-07-16T10:06:42.837Z,24.77
2018-07-16T10:07:42.760Z,24.76
2018-07-16T10:08:42.838Z,24.77
2018-07-16T10:09:42.800Z,24.82
2018-07-16T10:10:42.879Z,24.86
2018-07-16T10:11:42.778Z,24.91
2018-07-16T10:12:42.791Z,24.96
2018-07-16T10:13:42.870Z,24.99
2018-07-16T10:14:42.851Z,25.03
2018-07-16T10:15:42.784Z,25.1
2018-07-16T10:16:42.849Z,25.08
2018-07-16T10:17:42.798Z,25.09
2018-07-16T10:18:42.904Z,25.1
2018-07-16T10:19:42.762Z,25.13
2018-07-16T10:20:42.844Z,25.11
2018-07-16T10:21:42.797Z,25.13
2018-07-16T10:22:42.853Z,25.13
2018-07-16T10:23:42.906Z,25.14
2018-07-16T10:24:42.792Z,25.18
2018-07-16T10:25:43.371Z,25.21
2018-07-16T10:26:42.769Z,25.23
2018-07-16T10:27:42.808Z,25.26
2018-07-16T10:28:42.833Z,25.28
2018-07-16T10:29:42.798Z,25.33
2018-07-16T10:30:42.946Z,25.39
2018-07-16T10:31:42.822Z,25.43
2018-07-16T10:32:42.812Z,25.49
2018-07-16T10:33:43.339Z,25.55
2018-07-16T10:34:42.914Z,25.58
2018-07-16T10:35:42.816Z,25.6
2018-07-16T10:36:42.829Z,25.55
2018-07-16T10:37:42.762Z,25.5
2018-07-16T10:38:42.808Z,25.52
2018-07-16T10:39:42.846Z,25.53
2018-07-16T10:40:42.888Z,25.54
2018-07-16T10:41:42.797Z,25.59
2018-07-16T10:42:42.797Z,25.6
2018-07-16T10:43:42.850Z,25.61
2018-07-16T10:44:42.792Z,25.65
2018-07-16T10:45:42.776Z,25.69
2018-07-16T10:46:42.831Z,25.68
2018-07-16T10:47:42.791Z,25.72
2018-07-16T10:48:42.810Z,25.7
2018-07-16T10:49:43.591Z,25.68
2018-07-16T10:50:42.814Z,25.72
2018-07-16T10:51:42.806Z,25.73
2018-07-16T10:52:42.810Z,25.75
2018-07-16T10:53:42.790Z,25.82
2018-07-16T10:54:42.805Z,25.85
2018-07-16T10:55:42.827Z,25.85
2018-07-16T10:56:42.786Z,25.9
2018-07-16T10:57:42.875Z,25.92
2018-07-16T10:58:42.851Z,25.95
2018-07-16T10:59:42.801Z,25.98
2018-07-16T11:00:42.975Z,26
2018-07-16T11:01:42.854Z,26.02
2018-07-16T11:02:42.819Z,26.03
2018-07-16T11:03:42.801Z,26.05
2018-07-16T11:04:42.860Z,26.09
2018-07-16T11:05:42.827Z,26.09
2018-07-16T11:06:42.858Z,26.11
2018-07-16T11:07:42.869Z,26.12
2018-07-16T11:08:42.862Z,26.13
2018-07-16T11:09:42.850Z,26.16
2018-07-16T11:10:42.853Z,26.19
2018-07-16T11:11:42.871Z,26.22
2018-07-16T11:12:42.790Z,26.14
2018-07-16T11:13:42.843Z,26.15
2018-07-16T11:14:42.888Z,26.21
2018-07-16T11:15:42.815Z,26.28
2018-07-16T11:16:42.865Z,26.33
2018-07-16T11:17:42.880Z,26.35
2018-07-16T11:18:42.811Z,26.36
2018-07-16T11:19:42.943Z,26.39
2018-07-16T11:20:43.143Z,26.4
2018-07-16T11:21:42.962Z,26.39
2018-07-16T11:22:42.802Z,26.42
2018-07-16T11:23:42.815Z,26.44
2018-07-16T11:24:42.835Z,26.44
2018-07-16T11:25:42.804Z,26.47
2018-07-16T11:26:42.812Z,26.48
2018-07-16T11:27:42.821Z,26.49
2018-07-16T11:28:42.884Z,26.5
2018-07-16T11:29:42.960Z,26.5
2018-07-16T11:30:42.937Z,26.49
2018-07-16T11:31:42.875Z,26.5
2018-07-16T11:32:42.879Z,26.55
2018-07-16T11:33:42.870Z,26.56
2018-07-16T11:34:42.923Z,26.6
2018-07-16T11:35:43.407Z,26.63
2018-07-16T11:36:42.843Z,26.69
2018-07-16T11:37:42.872Z,26.72
2018-07-16T11:38:42.856Z,26.79
2018-07-16T11:39:42.819Z,26.82
2018-07-16T11:40:42.888Z,26.89
2018-07-16T11:41:42.872Z,26.9
2018-07-16T11:42:42.854Z,26.93
2018-07-16T11:43:43.205Z,26.9
2018-07-16T11:44:43.064Z,26.93
2018-07-16T11:45:42.842Z,26.91
2018-07-16T11:46:42.839Z,26.86
2018-07-16T11:47:42.841Z,26.9
2018-07-16T11:48:42.915Z,26.93
2018-07-16T11:49:42.851Z,26.94
2018-07-16T11:50:42.921Z,26.98
2018-07-16T11:51:42.864Z,27.02
2018-07-16T11:52:42.913Z,27.07
2018-07-16T11:53:42.863Z,27.12
2018-07-16T11:54:42.940Z,27.11
2018-07-16T11:55:42.902Z,26.94
2018-07-16T11:56:42.879Z,26.94
2018-07-16T11:57:42.886Z,26.96
2018-07-16T11:58:42.898Z,26.93
2018-07-16T11:59:42.837Z,26.92
2018-07-16T12:00:42.833Z,26.92
2018-07-16T12:01:43.367Z,27.05
2018-07-16T12:02:42.893Z,27.11
2018-07-16T12:03:43.064Z,27.13
2018-07-16T12:04:42.899Z,27.17
2018-07-16T12:05:42.885Z,27.22
2018-07-16T12:06:42.892Z,27.26
2018-07-16T12:07:42.887Z,27.25
2018-07-16T12:08:42.851Z,27.31
2018-07-16T12:09:42.896Z,27.31
2018-07-16T12:10:42.902Z,27.23
2018-07-16T12:11:42.883Z,27.3
2018-07-16T12:12:44.703Z,27.33
2018-07-16T12:13:42.854Z,27.39
2018-07-16T12:14:42.872Z,27.44
2018-07-16T12:15:42.855Z,27.43
2018-07-16T12:16:42.939Z,27.44
2018-07-16T12:17:42.984Z,27.5
2018-07-16T12:18:43.009Z,27.53
2018-07-16T12:19:42.945Z,27.58
2018-07-16T12:20:42.925Z,27.66
2018-07-16T12:21:42.918Z,27.72
2018-07-16T12:22:42.933Z,27.77
2018-07-16T12:23:43.167Z,27.82
2018-07-16T12:24:42.956Z,27.69
2018-07-16T12:25:42.867Z,27.77
2018-07-16T12:26:43.097Z,27.8
2018-07-16T12:27:42.963Z,27.84
2018-07-16T12:28:42.913Z,27.79
2018-07-16T12:29:42.914Z,27.84
2018-07-16T12:30:42.944Z,27.77
2018-07-16T12:31:42.884Z,27.79
2018-07-16T12:32:43.423Z,27.85
2018-07-16T12:33:42.956Z,27.89
2018-07-16T12:34:42.956Z,27.93
2018-07-16T12:35:43.011Z,27.99
2018-07-16T12:36:42.952Z,28.03
2018-07-16T12:37:42.926Z,28.07
2018-07-16T12:38:42.971Z,28.13
2018-07-16T12:39:42.877Z,28.18
2018-07-16T12:40:42.925Z,28.19
2018-07-16T12:41:43.504Z,28.24
2018-07-16T12:42:42.891Z,28.11
2018-07-16T12:43:42.992Z,28.19
2018-07-16T12:44:42.881Z,28.21
2018-07-16T12:45:42.900Z,28.22
2018-07-16T12:46:42.913Z,28.24
2018-07-16T12:47:43.005Z,28.14
2018-07-16T12:48:42.881Z,28.16
2018-07-16T12:49:42.874Z,28.21
2018-07-16T12:50:42.940Z,28.23
2018-07-16T12:51:43.033Z,28.28
2018-07-16T12:52:42.889Z,28.3
2018-07-16T12:53:42.868Z,28.37
2018-07-16T12:54:42.899Z,28.35